Elroy, Wisconsin
Current Conditions -  °F | °C
As of 1:58 PM on Thursday 20 Nov 2014 (Local Time) from KVOK Reporting Station
Clear Clear  
Wind Chill:   Ceiling: Unl
Heat Index: 19°   Visibility: 10mi
Dew Point:   Wind: 18mph
Humidity: 42%   Direction: 270°W
Pressure: 30.05"   Gusts: 24mph
Location:  43.74°N, 90.27°W
Report Text: KVOK 201958Z 27016G21KT 230V300 10SM CLR M07/M18 A3005 RMK AO2A SLP195
Loading
Personal Weather Stations






























Interactive Weather Map New forecast layout! Learn more

10-Day Weather Forecast

Advertisements
Track Severe Weather on mobile